createdAt,value
2023-05-24T00:02:14.201Z,2.60
2023-05-24T00:04:42.283Z,2.10
2023-05-24T00:07:09.173Z,2.25
2023-05-24T00:09:35.908Z,2.30
2023-05-24T00:12:03.307Z,1.92
2023-05-24T00:14:30.347Z,2.00
2023-05-24T00:16:57.005Z,2.40
2023-05-24T00:19:24.074Z,2.45
2023-05-24T00:21:50.821Z,2.10
2023-05-24T00:24:17.563Z,2.22
2023-05-24T00:26:44.961Z,2.40
2023-05-24T00:29:12.169Z,1.92
2023-05-24T00:31:39.068Z,1.80
2023-05-24T00:34:06.410Z,1.98
2023-05-24T00:36:33.287Z,2.08
2023-05-24T00:39:00.236Z,2.60
2023-05-24T00:41:26.974Z,2.25
2023-05-24T00:43:53.602Z,2.80
2023-05-24T00:46:32.126Z,2.55
2023-05-24T00:49:00.466Z,2.70
2023-05-24T00:51:28.061Z,2.47
2023-05-24T00:53:55.553Z,2.97
2023-05-24T00:56:23.068Z,2.80
2023-05-24T00:58:54.589Z,2.78
2023-05-24T01:01:21.675Z,3.20
2023-05-24T01:03:48.633Z,3.00
2023-05-24T01:06:16.308Z,2.30
2023-05-24T01:09:25.685Z,2.80
2023-05-24T01:12:30.501Z,2.92
2023-05-24T01:15:19.150Z,2.88
2023-05-24T01:18:05.569Z,2.22
2023-05-24T01:20:34.054Z,2.50
2023-05-24T01:23:15.282Z,2.35
2023-05-24T01:26:08.434Z,2.45
2023-05-24T01:28:36.103Z,2.28
2023-05-24T01:31:04.104Z,2.40
2023-05-24T01:33:33.753Z,1.88
2023-05-24T01:36:00.513Z,2.42
2023-05-24T01:38:27.156Z,2.50
2023-05-24T01:41:04.802Z,2.50
2023-05-24T01:43:41.356Z,2.53
2023-05-24T01:46:33.444Z,2.60
2023-05-24T01:49:18.035Z,2.42
2023-05-24T01:54:23.403Z,2.83
2023-05-24T01:56:52.973Z,2.80
2023-05-24T01:59:22.556Z,3.35
2023-05-24T02:01:49.789Z,2.80
2023-05-24T02:04:17.612Z,2.75
2023-05-24T02:06:44.198Z,3.47
2023-05-24T02:09:10.776Z,3.38
2023-05-24T02:11:37.391Z,3.15
2023-05-24T02:14:03.982Z,3.10
2023-05-24T02:16:30.849Z,3.08
2023-05-24T02:18:58.062Z,3.50
2023-05-24T02:21:25.895Z,3.10
2023-05-24T02:23:52.577Z,3.38
2023-05-24T02:26:19.971Z,3.85
2023-05-24T02:28:48.946Z,3.08
2023-05-24T02:31:15.579Z,3.20
2023-05-24T02:33:42.247Z,3.40
2023-05-24T02:36:09.012Z,2.90
2023-05-24T02:38:37.199Z,2.88
2023-05-24T02:41:04.054Z,3.45
2023-05-24T02:43:30.745Z,3.28
2023-05-24T02:45:57.323Z,3.03
2023-05-24T02:48:24.025Z,3.70
2023-05-24T02:50:51.371Z,3.22
2023-05-24T02:53:17.918Z,3.22
2023-05-24T02:55:46.747Z,3.20
2023-05-24T02:58:13.662Z,3.15
2023-05-24T03:00:40.460Z,4.10
2023-05-24T03:03:07.213Z,3.63
2023-05-24T03:05:33.836Z,3.20
2023-05-24T03:08:00.396Z,3.22
2023-05-24T03:10:26.974Z,2.97
2023-05-24T03:12:53.622Z,3.60
2023-05-24T03:15:20.256Z,3.08
2023-05-24T03:17:46.976Z,3.30
2023-05-24T03:20:13.606Z,3.30
2023-05-24T03:22:40.212Z,4.10
2023-05-24T03:25:08.766Z,3.53
2023-05-24T03:27:36.475Z,3.42
2023-05-24T03:30:03.479Z,3.55
2023-05-24T03:32:30.099Z,3.45
2023-05-24T03:34:57.666Z,4.50
2023-05-24T03:37:24.272Z,3.88
2023-05-24T03:39:50.891Z,4.25
2023-05-24T03:42:17.531Z,4.20
2023-05-24T03:44:44.269Z,3.55
2023-05-24T03:47:10.930Z,4.75
2023-05-24T03:49:37.553Z,4.00
2023-05-24T03:52:04.286Z,3.92
2023-05-24T03:54:31.013Z,3.90
2023-05-24T03:56:57.596Z,4.20
2023-05-24T03:59:24.399Z,4.60
2023-05-24T04:01:51.037Z,4.30
2023-05-24T04:04:17.741Z,4.35
2023-05-24T04:06:44.393Z,3.95
2023-05-24T04:09:10.965Z,4.38
2023-05-24T04:11:37.573Z,4.78
2023-05-24T04:14:04.155Z,4.32
2023-05-24T04:16:34.155Z,4.07
2023-05-24T04:19:03.962Z,4.68
2023-05-24T04:21:32.198Z,4.10
2023-05-24T04:24:02.202Z,3.90
2023-05-24T04:26:29.849Z,4.85
2023-05-24T04:28:57.452Z,4.68
2023-05-24T04:31:24.135Z,3.53
2023-05-24T04:33:50.729Z,4.63
2023-05-24T04:36:17.793Z,4.40
2023-05-24T04:38:45.829Z,4.18
2023-05-24T04:41:13.552Z,5.15
2023-05-24T04:43:40.737Z,4.50
2023-05-24T04:46:09.156Z,4.88
2023-05-24T04:48:36.226Z,4.45
2023-05-24T04:51:02.949Z,5.28
2023-05-24T04:53:29.609Z,4.85
2023-05-24T04:55:56.289Z,4.80
2023-05-24T04:58:22.851Z,4.93
2023-05-24T05:00:49.465Z,4.70
2023-05-24T05:03:16.405Z,5.35
2023-05-24T05:05:43.157Z,4.45
2023-05-24T05:08:09.847Z,5.25
2023-05-24T05:10:36.809Z,5.35
2023-05-24T05:13:03.481Z,5.10
2023-05-24T05:15:30.773Z,5.20
2023-05-24T05:17:57.415Z,5.65
2023-05-24T05:20:24.790Z,5.45
2023-05-24T05:22:51.402Z,5.88
2023-05-24T05:25:18.210Z,5.43
2023-05-24T05:27:44.765Z,6.05
2023-05-24T05:30:11.929Z,6.10
2023-05-24T05:32:38.639Z,6.20
2023-05-24T05:35:05.936Z,6.85
2023-05-24T05:37:32.630Z,7.10
2023-05-24T05:39:59.428Z,7.57
2023-05-24T05:42:26.143Z,7.03
2023-05-24T05:44:52.856Z,7.50
2023-05-24T05:47:19.549Z,8.20
2023-05-24T05:49:46.178Z,7.35
2023-05-24T05:52:12.841Z,7.55
2023-05-24T05:54:39.490Z,8.07
2023-05-24T05:57:08.237Z,8.13
2023-05-24T05:59:36.313Z,8.00
2023-05-24T06:02:04.150Z,8.18
2023-05-24T06:04:31.766Z,7.88
2023-05-24T06:06:58.411Z,6.93
2023-05-24T06:09:25.119Z,7.47
2023-05-24T06:11:51.782Z,8.02
2023-05-24T06:14:18.544Z,8.02
2023-05-24T06:16:46.100Z,7.38
2023-05-24T06:19:13.643Z,7.50
2023-05-24T06:21:47.183Z,7.93
2023-05-24T06:24:21.447Z,7.95
2023-05-24T06:29:15.409Z,8.15
2023-05-24T06:31:43.521Z,7.80
2023-05-24T06:34:10.428Z,7.85
2023-05-24T06:36:41.398Z,7.40
2023-05-24T06:39:11.106Z,8.20
2023-05-24T06:41:39.055Z,7.80
2023-05-24T06:44:05.835Z,7.40
2023-05-24T06:46:33.091Z,7.45
2023-05-24T06:48:59.828Z,7.82
2023-05-24T06:51:26.633Z,7.95
2023-05-24T06:53:53.711Z,7.43
2023-05-24T06:56:20.414Z,8.10
2023-05-24T06:58:47.593Z,9.00
2023-05-24T07:01:14.645Z,7.90
2023-05-24T07:03:41.470Z,8.05
2023-05-24T07:06:10.086Z,8.48
2023-05-24T07:08:36.864Z,7.15
2023-05-24T07:11:04.125Z,7.82
2023-05-24T07:13:30.934Z,8.68
2023-05-24T07:15:57.601Z,9.63
2023-05-24T07:18:24.168Z,8.68
2023-05-24T07:20:50.875Z,9.45
2023-05-24T07:23:17.701Z,9.68
2023-05-24T07:25:44.272Z,9.13
2023-05-24T07:28:11.319Z,8.18
2023-05-24T07:30:39.400Z,9.85
2023-05-24T07:33:06.646Z,8.82
2023-05-24T07:35:33.344Z,8.88
2023-05-24T07:37:59.967Z,8.63
2023-05-24T07:40:26.694Z,9.05
2023-05-24T07:42:53.313Z,7.97
2023-05-24T07:45:20.568Z,7.15
2023-05-24T07:47:47.241Z,8.40
2023-05-24T07:50:13.873Z,7.97
2023-05-24T07:52:40.557Z,7.32
2023-05-24T07:55:07.997Z,7.95
2023-05-24T07:57:34.547Z,7.60
2023-05-24T08:00:07.452Z,8.02
2023-05-24T08:02:34.930Z,8.30
2023-05-24T08:05:01.695Z,7.20
2023-05-24T08:07:28.863Z,7.35
2023-05-24T08:09:55.668Z,7.68
2023-05-24T08:12:22.689Z,7.35
2023-05-24T08:14:49.366Z,6.63
2023-05-24T08:17:15.924Z,6.70
2023-05-24T08:19:42.502Z,7.40
2023-05-24T08:22:10.215Z,7.38
2023-05-24T08:24:36.898Z,7.47
2023-05-24T08:27:04.506Z,7.10
2023-05-24T08:29:31.512Z,7.40
2023-05-24T08:31:58.562Z,7.68
2023-05-24T08:34:25.203Z,7.07
2023-05-24T08:36:51.805Z,7.43
2023-05-24T08:39:18.357Z,7.57
2023-05-24T08:41:51.555Z,7.85
2023-05-24T08:44:25.900Z,8.10
2023-05-24T08:46:54.961Z,8.10
2023-05-24T08:49:21.751Z,8.43
2023-05-24T08:51:49.884Z,8.50
2023-05-24T08:54:16.717Z,8.63
2023-05-24T08:56:43.685Z,9.10
2023-05-24T08:59:11.559Z,8.57
2023-05-24T09:01:41.630Z,9.75
2023-05-24T09:04:09.077Z,8.73
2023-05-24T09:06:37.094Z,8.88
2023-05-24T09:09:04.720Z,9.18
2023-05-24T09:11:32.549Z,9.82
2023-05-24T09:14:00.855Z,10.07
2023-05-24T09:16:28.212Z,9.43
2023-05-24T09:18:54.833Z,10.55
2023-05-24T09:21:22.333Z,10.77
2023-05-24T09:23:49.477Z,9.13
2023-05-24T09:26:16.143Z,9.63
2023-05-24T09:28:43.853Z,10.10
2023-05-24T09:31:10.689Z,10.20
2023-05-24T09:33:39.370Z,9.98
2023-05-24T09:36:07.194Z,9.63
2023-05-24T09:38:36.365Z,8.65
2023-05-24T09:41:05.702Z,9.98
2023-05-24T09:43:34.755Z,8.98
2023-05-24T09:46:04.952Z,9.88
2023-05-24T09:48:32.084Z,8.88
2023-05-24T09:51:06.408Z,8.75
2023-05-24T09:53:34.959Z,9.02
2023-05-24T09:56:04.264Z,8.50
2023-05-24T09:58:34.449Z,8.25
2023-05-24T10:01:08.728Z,8.02
2023-05-24T10:03:37.867Z,8.10
2023-05-24T10:06:07.820Z,8.27
2023-05-24T10:08:36.197Z,7.55
2023-05-24T10:11:06.921Z,7.90
2023-05-24T10:13:36.712Z,7.88
2023-05-24T10:16:03.936Z,8.10
2023-05-24T10:18:30.633Z,8.27
2023-05-24T10:20:58.363Z,7.43
2023-05-24T10:23:29.437Z,7.63
2023-05-24T10:26:14.530Z,6.75
2023-05-24T10:28:54.722Z,6.53
2023-05-24T10:31:28.317Z,6.57
2023-05-24T10:34:06.619Z,6.68
2023-05-24T10:36:35.242Z,6.60
2023-05-24T10:39:02.280Z,6.35
2023-05-24T10:41:29.254Z,6.65
2023-05-24T10:44:09.414Z,6.38
2023-05-24T10:46:36.770Z,6.75
2023-05-24T10:49:06.072Z,7.45
2023-05-24T10:51:38.474Z,7.60
2023-05-24T10:54:13.793Z,7.50
2023-05-24T10:56:43.215Z,9.15
2023-05-24T10:59:09.881Z,7.90
2023-05-24T11:01:36.800Z,7.88
2023-05-24T11:04:10.191Z,8.98
2023-05-24T11:06:49.918Z,8.70
2023-05-24T11:09:22.457Z,8.70
2023-05-24T11:11:51.089Z,8.07
2023-05-24T11:14:24.546Z,8.88
2023-05-24T11:16:51.953Z,7.95
2023-05-24T11:19:31.348Z,8.63
2023-05-24T11:21:59.059Z,8.75
2023-05-24T11:24:27.064Z,9.13
2023-05-24T11:26:54.148Z,8.10
2023-05-24T11:29:22.944Z,9.10
2023-05-24T11:32:04.624Z,9.63
2023-05-24T11:34:32.754Z,9.50
2023-05-24T11:37:00.559Z,8.57
2023-05-24T11:39:36.758Z,9.48
2023-05-24T11:42:07.738Z,9.45
2023-05-24T11:44:38.016Z,9.20
2023-05-24T11:47:07.315Z,8.73
2023-05-24T11:49:34.745Z,9.02
2023-05-24T11:52:02.650Z,10.48
2023-05-24T11:54:31.855Z,9.63
2023-05-24T11:56:58.544Z,8.88
2023-05-24T11:59:26.979Z,9.70
2023-05-24T12:02:04.568Z,8.88
2023-05-24T12:04:32.623Z,9.35
2023-05-24T12:06:59.815Z,9.68
2023-05-24T12:09:27.102Z,9.77
2023-05-24T12:11:54.700Z,10.43
2023-05-24T12:14:27.744Z,10.32
2023-05-24T12:16:56.569Z,11.07
2023-05-24T12:19:33.935Z,11.05
2023-05-24T12:22:05.222Z,10.95
2023-05-24T12:24:32.490Z,10.25
2023-05-24T12:27:09.790Z,10.38
2023-05-24T12:29:38.843Z,9.35
2023-05-24T12:32:06.711Z,10.68
2023-05-24T12:34:33.371Z,10.23
2023-05-24T12:37:03.116Z,10.18
2023-05-24T12:39:36.790Z,10.93
2023-05-24T12:42:04.693Z,9.75
2023-05-24T12:44:36.735Z,10.32
2023-05-24T12:47:05.287Z,10.20
2023-05-24T12:49:32.334Z,10.55
2023-05-24T12:51:59.992Z,11.30
2023-05-24T12:54:28.439Z,10.23
2023-05-24T12:56:57.463Z,10.45
2023-05-24T12:59:26.541Z,10.70
2023-05-24T13:01:53.626Z,10.18
2023-05-24T13:04:21.966Z,10.35
2023-05-24T13:06:49.330Z,10.82
2023-05-24T13:09:19.118Z,10.48
2023-05-24T13:11:47.204Z,10.40
2023-05-24T13:14:15.574Z,11.07
2023-05-24T13:16:42.460Z,10.88
2023-05-24T13:19:09.240Z,10.40
2023-05-24T13:21:35.926Z,10.43
2023-05-24T13:24:02.725Z,10.73
2023-05-24T13:26:30.671Z,10.93
2023-05-24T13:31:28.450Z,10.95
2023-05-24T13:33:55.450Z,11.30
2023-05-24T13:36:22.113Z,12.75
2023-05-24T13:38:56.473Z,12.48
2023-05-24T13:41:29.142Z,12.88
2023-05-24T13:43:55.874Z,12.65
2023-05-24T13:46:23.238Z,12.40
2023-05-24T13:48:49.860Z,12.95
2023-05-24T13:51:18.721Z,12.25
2023-05-24T13:53:45.353Z,12.07
2023-05-24T13:56:11.926Z,12.45
2023-05-24T13:58:38.543Z,12.68
2023-05-24T14:01:05.177Z,11.90
2023-05-24T14:03:31.724Z,12.32
2023-05-24T14:05:58.491Z,12.15
2023-05-24T14:08:25.894Z,12.18
2023-05-24T14:10:53.747Z,12.63
2023-05-24T14:14:02.489Z,12.23
2023-05-24T14:16:08.787Z,11.88
2023-05-24T14:18:36.525Z,12.57
2023-05-24T14:21:03.468Z,12.43
2023-05-24T14:23:32.042Z,11.50
2023-05-24T14:26:00.233Z,11.90
2023-05-24T14:28:27.013Z,12.80
2023-05-24T14:30:53.599Z,11.55
2023-05-24T14:33:20.387Z,12.07
2023-05-24T14:35:47.226Z,11.52
2023-05-24T14:38:13.902Z,11.68
2023-05-24T14:40:40.935Z,11.18
2023-05-24T14:43:10.535Z,11.80
2023-05-24T14:45:38.683Z,11.30
2023-05-24T14:48:05.876Z,11.50
2023-05-24T14:50:32.991Z,11.95
2023-05-24T14:53:01.245Z,11.55
2023-05-24T14:55:27.842Z,10.48
2023-05-24T14:57:54.607Z,10.60
2023-05-24T15:00:23.272Z,11.38
2023-05-24T15:02:51.204Z,10.90
2023-05-24T15:05:17.866Z,10.43
2023-05-24T15:07:44.438Z,11.38
2023-05-24T15:10:11.445Z,10.13
2023-05-24T15:12:38.173Z,10.00
2023-05-24T15:15:06.856Z,9.98
2023-05-24T15:17:34.017Z,9.90
2023-05-24T15:20:00.771Z,9.57
2023-05-24T15:22:27.672Z,9.90
2023-05-24T15:24:54.241Z,9.75
2023-05-24T15:27:20.846Z,9.10
2023-05-24T15:29:47.573Z,10.30
2023-05-24T15:32:14.248Z,10.40
2023-05-24T15:34:41.265Z,10.35
2023-05-24T15:37:07.941Z,9.43
2023-05-24T15:39:34.558Z,8.25
2023-05-24T15:42:01.099Z,9.68
2023-05-24T15:44:28.012Z,10.75
2023-05-24T15:46:54.694Z,10.25
2023-05-24T15:49:23.244Z,9.60
2023-05-24T15:52:03.898Z,9.52
2023-05-24T15:54:32.094Z,8.85
2023-05-24T15:57:00.637Z,9.10
2023-05-24T15:59:27.976Z,9.23
2023-05-24T16:01:55.090Z,9.07
2023-05-24T16:04:21.879Z,9.32
2023-05-24T16:06:49.311Z,8.70
2023-05-24T16:09:16.115Z,8.30
2023-05-24T16:11:42.772Z,8.82
2023-05-24T16:14:10.377Z,8.63
2023-05-24T16:16:38.098Z,8.20
2023-05-24T16:19:04.882Z,8.10
2023-05-24T16:21:32.922Z,9.00
2023-05-24T16:24:01.841Z,8.68
2023-05-24T16:26:30.807Z,7.72
2023-05-24T16:28:57.749Z,8.30
2023-05-24T16:31:24.640Z,8.45
2023-05-24T16:33:51.410Z,7.80
2023-05-24T16:36:18.012Z,7.60
2023-05-24T16:38:44.610Z,8.15
2023-05-24T16:41:11.217Z,7.63
2023-05-24T16:43:38.083Z,8.05
2023-05-24T16:46:04.751Z,7.93
2023-05-24T16:48:31.671Z,7.93
2023-05-24T16:50:58.872Z,7.88
2023-05-24T16:53:27.228Z,8.07
2023-05-24T16:55:55.839Z,8.18
2023-05-24T16:58:28.685Z,7.90
2023-05-24T17:00:55.384Z,8.25
2023-05-24T17:03:27.747Z,7.95
2023-05-24T17:05:55.516Z,8.70
2023-05-24T17:08:22.510Z,8.60
2023-05-24T17:10:55.846Z,9.35
2023-05-24T17:13:29.380Z,8.32
2023-05-24T17:15:57.298Z,8.90
2023-05-24T17:18:28.441Z,9.68
2023-05-24T17:21:00.380Z,9.68
2023-05-24T17:23:28.428Z,9.30
2023-05-24T17:25:57.924Z,10.07
2023-05-24T17:28:28.605Z,9.13
2023-05-24T17:30:56.376Z,9.52
2023-05-24T17:33:24.001Z,9.23
2023-05-24T17:35:51.197Z,9.27
2023-05-24T17:38:18.505Z,10.25
2023-05-24T17:40:49.010Z,9.68
2023-05-24T17:43:15.683Z,9.70
2023-05-24T17:45:42.977Z,9.13
2023-05-24T17:48:10.290Z,9.95
2023-05-24T17:50:36.901Z,10.30
2023-05-24T17:53:03.607Z,10.93
2023-05-24T17:55:30.216Z,11.20
2023-05-24T17:57:57.830Z,10.35
2023-05-24T18:00:24.502Z,9.82
2023-05-24T18:02:51.210Z,10.05
2023-05-24T18:05:17.961Z,8.95
2023-05-24T18:07:44.572Z,9.77
2023-05-24T18:10:11.471Z,9.60
2023-05-24T18:12:38.756Z,11.25
2023-05-24T18:15:06.452Z,13.15
2023-05-24T18:17:33.093Z,14.10
2023-05-24T18:19:59.787Z,14.38
2023-05-24T18:22:26.914Z,14.27
2023-05-24T18:24:53.442Z,14.63
2023-05-24T18:27:20.592Z,15.05
2023-05-24T18:29:47.192Z,12.90
2023-05-24T18:32:14.465Z,14.27
2023-05-24T18:34:41.388Z,14.02
2023-05-24T18:37:08.195Z,14.50
2023-05-24T18:39:35.957Z,14.77
2023-05-24T18:42:02.792Z,14.38
2023-05-24T18:44:29.516Z,14.15
2023-05-24T18:46:58.097Z,13.93
2023-05-24T18:49:24.887Z,14.60
2023-05-24T18:51:51.691Z,13.45
2023-05-24T18:54:18.341Z,13.93
2023-05-24T18:56:47.122Z,13.77
2023-05-24T18:59:14.376Z,16.98
2023-05-24T19:01:41.716Z,12.23
2023-05-24T19:04:08.468Z,13.20
2023-05-24T19:06:35.024Z,13.32
2023-05-24T19:09:02.475Z,15.05
2023-05-24T19:11:29.085Z,12.63
2023-05-24T19:13:55.968Z,12.75
2023-05-24T19:16:22.741Z,13.10
2023-05-24T19:18:50.484Z,13.43
2023-05-24T19:21:18.102Z,13.65
2023-05-24T19:23:44.705Z,13.35
2023-05-24T19:26:11.506Z,14.18
2023-05-24T19:28:41.369Z,13.13
2023-05-24T19:31:07.965Z,14.40
2023-05-24T19:33:35.943Z,13.75
2023-05-24T19:36:05.549Z,14.10
2023-05-24T19:38:32.330Z,14.30
2023-05-24T19:40:59.032Z,14.95
2023-05-24T19:43:25.888Z,14.18
2023-05-24T19:45:54.353Z,13.32
2023-05-24T19:48:21.840Z,13.63
2023-05-24T19:50:49.285Z,13.57
2023-05-24T19:53:16.329Z,14.02
2023-05-24T19:55:43.958Z,14.60
2023-05-24T19:58:10.890Z,15.30
2023-05-24T20:00:37.474Z,15.85
2023-05-24T20:03:04.698Z,16.90
2023-05-24T20:05:31.616Z,15.30
2023-05-24T20:07:58.251Z,17.02
2023-05-24T20:10:25.060Z,18.23
2023-05-24T20:12:51.778Z,16.05
2023-05-24T20:15:18.775Z,14.63
2023-05-24T20:17:45.802Z,15.40
2023-05-24T20:20:12.668Z,15.27
2023-05-24T20:22:39.413Z,14.70
2023-05-24T20:25:06.737Z,15.82
2023-05-24T20:27:33.350Z,14.68
2023-05-24T20:30:00.024Z,14.52
2023-05-24T20:32:26.635Z,13.77
2023-05-24T20:34:53.482Z,13.75
2023-05-24T20:37:22.081Z,14.25
2023-05-24T20:39:48.815Z,14.48
2023-05-24T20:42:15.989Z,13.45
2023-05-24T20:44:42.841Z,13.40
2023-05-24T20:47:09.738Z,13.43
2023-05-24T20:49:36.488Z,12.70
2023-05-24T20:52:04.501Z,12.38
2023-05-24T20:54:31.374Z,12.95
2023-05-24T20:56:59.629Z,12.15
2023-05-24T20:59:26.273Z,12.18
2023-05-24T21:01:53.582Z,12.13
2023-05-24T21:04:20.296Z,11.52
2023-05-24T21:06:46.937Z,11.52
2023-05-24T21:09:13.530Z,11.82
2023-05-24T21:11:40.347Z,11.10
2023-05-24T21:14:06.955Z,10.68
2023-05-24T21:16:33.578Z,10.77
2023-05-24T21:19:00.865Z,10.48
2023-05-24T21:21:27.501Z,9.77
2023-05-24T21:23:55.668Z,9.75
2023-05-24T21:26:22.854Z,10.35
2023-05-24T21:28:49.736Z,10.32
2023-05-24T21:31:17.262Z,9.88
2023-05-24T21:33:44.171Z,9.95
2023-05-24T21:36:11.031Z,11.13
2023-05-24T21:38:37.635Z,10.27
2023-05-24T21:41:05.369Z,10.70
2023-05-24T21:43:32.112Z,10.00
2023-05-24T21:45:58.818Z,9.85
2023-05-24T21:48:26.108Z,10.02
2023-05-24T21:50:52.725Z,9.52
2023-05-24T21:53:19.284Z,9.75
2023-05-24T21:55:46.047Z,9.18
2023-05-24T21:58:12.684Z,9.93
2023-05-24T22:00:39.327Z,9.05
2023-05-24T22:03:06.057Z,10.40
2023-05-24T22:05:32.764Z,10.07
2023-05-24T22:07:59.324Z,10.68
2023-05-24T22:10:26.413Z,10.38
2023-05-24T22:12:53.017Z,10.13
2023-05-24T22:15:19.780Z,10.15
2023-05-24T22:17:46.316Z,9.93
2023-05-24T22:20:13.037Z,10.27
2023-05-24T22:22:48.453Z,11.10
2023-05-24T22:25:19.338Z,10.18
2023-05-24T22:27:49.962Z,11.70
2023-05-24T22:30:17.607Z,11.68
2023-05-24T22:32:44.389Z,10.90
2023-05-24T22:35:11.059Z,11.23
2023-05-24T22:37:37.855Z,11.00
2023-05-24T22:40:05.512Z,10.95
2023-05-24T22:42:32.053Z,11.27
2023-05-24T22:44:59.366Z,12.02
2023-05-24T22:47:26.792Z,12.52
2023-05-24T22:49:54.150Z,12.48
2023-05-24T22:52:21.064Z,12.40
2023-05-24T22:54:47.699Z,12.65
2023-05-24T22:57:14.343Z,13.05
2023-05-24T22:59:42.762Z,13.10
2023-05-24T23:02:09.374Z,12.68
2023-05-24T23:04:37.837Z,12.88
2023-05-24T23:07:04.993Z,12.00
2023-05-24T23:09:35.364Z,12.85
2023-05-24T23:12:07.461Z,12.77
2023-05-24T23:14:38.435Z,12.15
2023-05-24T23:17:06.463Z,12.57
2023-05-24T23:19:33.094Z,11.73
2023-05-24T23:21:59.691Z,13.43
2023-05-24T23:24:26.899Z,13.23
2023-05-24T23:26:55.810Z,12.63
2023-05-24T23:29:22.575Z,12.60
2023-05-24T23:31:49.288Z,13.48
2023-05-24T23:34:15.996Z,12.38
2023-05-24T23:36:42.622Z,13.10
2023-05-24T23:39:10.979Z,13.30
2023-05-24T23:41:37.596Z,12.63
2023-05-24T23:44:04.166Z,12.32
2023-05-24T23:46:31.335Z,12.05
2023-05-24T23:48:58.013Z,11.77
2023-05-24T23:51:24.635Z,11.40
2023-05-24T23:53:51.252Z,11.30
2023-05-24T23:56:17.894Z,10.98
2023-05-24T23:58:44.658Z,11.27
